Time;durP1;ratioP1;P1;durP2;ratioP2;P2;SDS_P1;SDS_P2;PMS_P1;PMS_P2;Temp;Humidity;BMP_temperature;BMP_pressure;BME280_temperature;BME280_humidity;BME280_pressure;Samples;Min_cycle;Max_cycle;Signal;HPM_P1;HPM_P2
2022/01/30 00:00:31;0.00;0.00;0.62;0.00;0.00;0.62;9.63;3.50;;;20.80;26.20;;;;;;2249017;61;20513;-61
2022/01/30 00:03:16;0.00;0.00;0.62;0.00;0.00;0.62;11.70;3.93;;;20.80;26.20;;;;;;2248844;61;20389;-61
2022/01/30 00:06:00;0.00;0.00;0.62;0.00;0.00;0.62;10.70;2.80;;;20.70;26.10;;;;;;2249307;61;20401;-61
2022/01/30 00:08:45;0.00;0.00;0.62;0.00;0.00;0.62;11.83;3.83;;;20.60;26.00;;;;;;2249455;61;20367;-60
2022/01/30 00:11:34;0.00;0.00;0.62;0.00;0.00;0.62;7.27;2.87;;;20.60;25.90;;;;;;2248097;61;20360;-61
2022/01/30 00:14:21;0.00;0.00;0.62;0.00;0.00;0.62;8.77;2.87;;;20.50;25.80;;;;;;2252078;61;20368;-61
2022/01/30 00:17:13;0.00;0.00;0.62;0.00;0.00;0.62;10.73;3.20;;;20.50;25.80;;;;;;2249548;61;20404;-61
2022/01/30 00:20:05;0.00;0.00;0.62;0.00;0.00;0.62;8.90;2.73;;;20.40;25.70;;;;;;2248404;61;20882;-61
2022/01/30 00:22:59;0.00;0.00;0.62;0.00;0.00;0.62;5.60;2.53;;;20.30;25.70;;;;;;2249577;61;20360;-61
2022/01/30 00:25:49;0.00;0.00;0.62;0.00;0.00;0.62;6.03;2.83;;;20.30;25.80;;;;;;2248236;61;20361;-61
2022/01/30 00:28:35;0.00;0.00;0.62;0.00;0.00;0.62;11.63;2.90;;;20.20;25.70;;;;;;2249035;61;20388;-61
2022/01/30 00:31:21;0.00;0.00;0.62;0.00;0.00;0.62;6.13;2.77;;;20.20;25.60;;;;;;2249551;61;20365;-61
2022/01/30 00:34:06;0.00;0.00;0.62;0.00;0.00;0.62;7.53;3.30;;;20.10;25.50;;;;;;2247956;61;20360;-61
2022/01/30 00:36:50;0.00;0.00;0.62;0.00;0.00;0.62;6.50;3.20;;;20.10;25.60;;;;;;2249527;61;20409;-61
2022/01/30 00:39:35;0.00;0.00;0.62;0.00;0.00;0.62;10.07;3.13;;;20.00;25.50;;;;;;2248874;61;20402;-59
2022/01/30 00:42:21;0.00;0.00;0.62;0.00;0.00;0.62;6.57;2.40;;;20.00;25.50;;;;;;2248233;61;20361;-59
2022/01/30 00:45:08;0.00;0.00;0.62;0.00;0.00;0.62;9.23;3.37;;;19.90;25.40;;;;;;2249680;61;20360;-60
2022/01/30 00:47:53;0.00;0.00;0.62;0.00;0.00;0.62;10.70;3.23;;;19.90;25.40;;;;;;2247228;61;20814;-60
2022/01/30 00:50:37;0.00;0.00;0.62;0.00;0.00;0.62;7.90;3.10;;;19.80;25.40;;;;;;2247551;61;20449;-61
2022/01/30 00:53:22;0.00;0.00;0.62;0.00;0.00;0.62;7.13;2.20;;;19.80;25.50;;;;;;2247881;61;20362;-60
2022/01/30 00:56:08;0.00;0.00;0.62;0.00;0.00;0.62;6.63;2.73;;;19.80;25.60;;;;;;2243941;61;20435;-61
2022/01/30 00:58:52;0.00;0.00;0.62;0.00;0.00;0.62;7.23;2.97;;;19.70;25.60;;;;;;2247682;61;20722;-61
2022/01/30 01:01:38;0.00;0.00;0.62;0.00;0.00;0.62;7.07;2.77;;;19.70;25.70;;;;;;2247701;61;20373;-60
2022/01/30 01:04:22;0.00;0.00;0.62;0.00;0.00;0.62;7.53;3.00;;;19.70;25.80;;;;;;2246797;61;20382;-61
2022/01/30 01:07:12;0.00;0.00;0.62;0.00;0.00;0.62;7.13;2.97;;;19.70;25.60;;;;;;2245429;61;20616;-62
2022/01/30 01:10:05;0.00;0.00;0.62;0.00;0.00;0.62;9.57;3.00;;;19.70;25.60;;;;;;2244061;61;20382;-61
2022/01/30 01:24:27;0.00;0.00;0.62;0.00;0.00;0.62;6.73;2.63;;;19.50;25.80;;;;;;2247963;61;20361;-59
2022/01/30 01:27:12;0.00;0.00;0.62;0.00;0.00;0.62;11.10;2.80;;;19.40;26.00;;;;;;2245372;61;20381;-60
2022/01/30 01:29:56;0.00;0.00;0.62;0.00;0.00;0.62;7.03;2.90;;;19.40;26.00;;;;;;2246105;61;20389;-62
2022/01/30 01:32:40;0.00;0.00;0.62;0.00;0.00;0.62;7.50;3.03;;;19.40;26.00;;;;;;2244568;61;20370;-61
2022/01/30 01:35:27;0.00;0.00;0.62;0.00;0.00;0.62;9.97;2.70;;;19.40;26.10;;;;;;2245911;61;20579;-61
2022/01/30 01:38:14;0.00;0.00;0.62;0.00;0.00;0.62;5.53;2.77;;;19.40;25.90;;;;;;2245930;61;20725;-61
2022/01/30 01:40:59;0.00;0.00;0.62;0.00;0.00;0.62;6.30;2.47;;;19.30;25.90;;;;;;2244406;61;20358;-61
2022/01/30 01:43:43;0.00;0.00;0.62;0.00;0.00;0.62;9.33;2.60;;;19.30;25.90;;;;;;2246163;61;20387;-61
2022/01/30 01:46:33;0.00;0.00;0.62;0.00;0.00;0.62;6.90;3.17;;;19.30;25.80;;;;;;2245338;61;20721;-61
2022/01/30 01:49:27;0.00;0.00;0.62;0.00;0.00;0.62;8.03;2.23;;;19.30;25.70;;;;;;2247898;61;20397;-61
2022/01/30 01:55:01;0.00;0.00;0.62;0.00;0.00;0.62;9.27;2.77;;;19.20;25.50;;;;;;2248239;61;20593;-61
2022/01/30 01:57:46;0.00;0.00;0.62;0.00;0.00;0.62;7.17;2.87;;;19.20;25.50;;;;;;2249551;61;20662;-60
2022/01/30 02:00:51;0.00;0.00;0.62;0.00;0.00;0.62;6.30;2.77;;;19.20;25.50;;;;;;2249754;61;20372;-61
2022/01/30 02:03:37;0.00;0.00;0.62;0.00;0.00;0.62;13.20;3.83;;;19.10;25.40;;;;;;2248572;61;20579;-60
2022/01/30 02:06:23;0.00;0.00;0.62;0.00;0.00;0.62;6.27;2.50;;;19.10;25.40;;;;;;2252374;61;20396;-61
2022/01/30 02:09:12;0.00;0.00;0.62;0.00;0.00;0.62;8.83;3.00;;;19.10;25.40;;;;;;2248208;61;20526;-61
2022/01/30 02:11:58;0.00;0.00;0.62;0.00;0.00;0.62;9.70;3.00;;;19.00;25.30;;;;;;2249690;61;20416;-61
2022/01/30 02:24:08;0.00;0.00;0.62;0.00;0.00;0.62;7.93;2.80;;;18.90;25.20;;;;;;2249059;61;20393;-60
2022/01/30 02:26:54;0.00;0.00;0.62;0.00;0.00;0.62;10.57;3.00;;;18.90;25.30;;;;;;2249229;61;20481;-60
2022/01/30 02:29:38;0.00;0.00;0.62;0.00;0.00;0.62;7.27;2.50;;;18.90;25.40;;;;;;2249405;61;20388;-60
2022/01/30 02:32:23;0.00;0.00;0.62;0.00;0.00;0.62;5.30;2.20;;;18.80;25.40;;;;;;2247473;61;20385;-60
2022/01/30 02:35:08;0.00;0.00;0.62;0.00;0.00;0.62;5.50;2.30;;;18.80;25.50;;;;;;2249732;61;20453;-60
2022/01/30 02:37:54;0.00;0.00;0.62;0.00;0.00;0.62;7.13;2.80;;;18.80;25.60;;;;;;2248991;61;20357;-61
2022/01/30 02:40:43;0.00;0.00;0.62;0.00;0.00;0.62;5.30;2.17;;;18.80;25.60;;;;;;2251155;61;20382;-61
2022/01/30 02:43:33;0.00;0.00;0.62;0.00;0.00;0.62;5.53;2.60;;;18.70;25.40;;;;;;2250023;61;20365;-59
2022/01/30 02:46:27;0.00;0.00;0.62;0.00;0.00;0.62;10.20;3.20;;;18.70;25.40;;;;;;2250840;61;20381;-61
2022/01/30 02:52:06;0.00;0.00;0.62;0.00;0.00;0.62;10.27;3.40;;;18.60;25.40;;;;;;2245647;61;20402;-61
2022/01/30 02:54:52;0.00;0.00;0.62;0.00;0.00;0.62;10.87;2.80;;;18.60;25.40;;;;;;2243921;61;20365;-61
2022/01/30 02:57:38;0.00;0.00;0.62;0.00;0.00;0.62;9.43;2.93;;;18.60;25.40;;;;;;2248216;61;20355;-62
2022/01/30 03:00:23;0.00;0.00;0.62;0.00;0.00;0.62;8.80;3.13;;;18.50;25.30;;;;;;2247200;61;20386;-61
2022/01/30 03:03:08;0.00;0.00;0.62;0.00;0.00;0.62;8.60;2.40;;;18.50;25.40;;;;;;2244580;61;20434;-59
2022/01/30 03:05:52;0.00;0.00;0.62;0.00;0.00;0.62;6.57;3.00;;;18.50;25.50;;;;;;2245784;61;20398;-60
2022/01/30 03:08:38;0.00;0.00;0.62;0.00;0.00;0.62;4.70;2.27;;;18.50;25.50;;;;;;2246385;61;20742;-59
2022/01/30 03:11:24;0.00;0.00;0.62;0.00;0.00;0.62;9.17;3.50;;;18.50;25.50;;;;;;2245600;61;20482;-61
2022/01/30 03:14:09;0.00;0.00;0.62;0.00;0.00;0.62;7.80;2.53;;;18.40;25.50;;;;;;2248140;61;20425;-60
2022/01/30 03:16:54;0.00;0.00;0.62;0.00;0.00;0.62;5.47;2.50;;;18.40;25.50;;;;;;2244139;61;20725;-61
2022/01/30 03:19:39;0.00;0.00;0.62;0.00;0.00;0.62;4.80;2.20;;;18.40;25.50;;;;;;2245277;61;20380;-61
2022/01/30 03:22:25;0.00;0.00;0.62;0.00;0.00;0.62;8.80;2.80;;;18.40;25.50;;;;;;2247387;61;20361;-61
2022/01/30 03:25:11;0.00;0.00;0.62;0.00;0.00;0.62;7.53;2.50;;;18.30;25.40;;;;;;2244607;61;20430;-61
2022/01/30 03:28:08;0.00;0.00;0.62;0.00;0.00;0.62;5.90;2.37;;;18.30;25.40;;;;;;2247853;61;20689;-61
2022/01/30 03:31:04;0.00;0.00;0.62;0.00;0.00;0.62;7.73;2.83;;;18.30;25.40;;;;;;2241415;61;20448;-60
2022/01/30 03:33:59;0.00;0.00;0.62;0.00;0.00;0.62;7.10;2.87;;;18.30;25.40;;;;;;2245727;61;20560;-61
2022/01/30 03:36:56;0.00;0.00;0.62;0.00;0.00;0.62;10.80;3.07;;;18.20;25.30;;;;;;2248124;61;20350;-61
2022/01/30 03:39:41;0.00;0.00;0.62;0.00;0.00;0.62;4.63;2.17;;;18.20;25.30;;;;;;2246855;61;20756;-61
2022/01/30 03:42:25;0.00;0.00;0.62;0.00;0.00;0.62;7.57;2.80;;;18.20;25.30;;;;;;2245626;61;20358;-59
2022/01/30 03:45:10;0.00;0.00;0.62;0.00;0.00;0.62;9.07;2.87;;;18.20;25.30;;;;;;2247448;61;20713;-59
2022/01/30 03:47:56;0.00;0.00;0.62;0.00;0.00;0.62;5.60;2.37;;;18.10;25.30;;;;;;2245494;61;20364;-60
2022/01/30 03:50:56;0.00;0.00;0.62;0.00;0.00;0.62;7.87;2.43;;;18.10;25.30;;;;;;2252052;61;20388;-60
2022/01/30 03:53:42;0.00;0.00;0.62;0.00;0.00;0.62;11.53;3.37;;;18.10;25.30;;;;;;2248017;61;20780;-60
2022/01/30 03:56:26;0.00;0.00;0.62;0.00;0.00;0.62;9.03;3.00;;;18.10;25.30;;;;;;2249114;61;20401;-59
2022/01/30 03:59:11;0.00;0.00;0.62;0.00;0.00;0.62;5.13;2.40;;;18.10;25.30;;;;;;2248927;61;20384;-60
2022/01/30 04:01:55;0.00;0.00;0.62;0.00;0.00;0.62;5.63;2.67;;;18.00;25.20;;;;;;2250837;61;20360;-62
2022/01/30 04:04:43;0.00;0.00;0.62;0.00;0.00;0.62;9.37;3.10;;;18.00;25.20;;;;;;2249317;61;20400;-61
2022/01/30 04:07:30;0.00;0.00;0.62;0.00;0.00;0.62;5.47;2.63;;;18.00;25.20;;;;;;2248789;61;20364;-61
2022/01/30 04:10:43;0.00;0.00;0.62;0.00;0.00;0.62;7.27;2.83;;;18.00;25.20;;;;;;2249126;61;20388;-60
2022/01/30 04:13:47;0.00;0.00;0.62;0.00;0.00;0.62;9.93;2.67;;;18.00;25.20;;;;;;2249412;61;20593;-61
2022/01/30 04:16:51;0.00;0.00;0.62;0.00;0.00;0.62;6.80;2.80;;;17.90;25.20;;;;;;2248108;61;20380;-59
2022/01/30 04:19:56;0.00;0.00;0.62;0.00;0.00;0.62;7.83;3.60;;;17.90;25.80;;;;;;2249501;61;20384;-60
2022/01/30 04:22:49;0.00;0.00;0.62;0.00;0.00;0.62;6.77;2.67;;;17.90;25.30;;;;;;2250437;61;20372;-59
2022/01/30 04:25:52;0.00;0.00;0.62;0.00;0.00;0.62;5.23;2.17;;;17.90;25.30;;;;;;2249633;61;20368;-58
2022/01/30 04:29:03;0.00;0.00;0.62;0.00;0.00;0.62;12.97;3.30;;;17.90;25.40;;;;;;2248662;61;20687;-61
2022/01/30 04:32:06;0.00;0.00;0.62;0.00;0.00;0.62;6.30;2.17;;;17.90;25.40;;;;;;2250828;61;20380;-62
2022/01/30 04:35:26;0.00;0.00;0.62;0.00;0.00;0.62;8.13;2.60;;;17.80;25.30;;;;;;2249598;61;20376;-59
2022/01/30 04:38:34;0.00;0.00;0.62;0.00;0.00;0.62;8.03;2.57;;;17.80;25.30;;;;;;2247088;61;20368;-61
2022/01/30 04:41:50;0.00;0.00;0.62;0.00;0.00;0.62;8.17;2.80;;;17.80;25.20;;;;;;2249198;61;20363;-62
2022/01/30 04:52:17;0.00;0.00;0.62;0.00;0.00;0.62;5.63;2.70;;;17.80;25.90;;;;;;2245037;61;20377;-61
2022/01/30 04:58:53;0.00;0.00;0.62;0.00;0.00;0.62;6.67;2.80;;;17.70;25.30;;;;;;2247586;61;20851;-61
2022/01/30 05:08:32;0.00;0.00;0.62;0.00;0.00;0.62;13.00;3.50;;;17.60;25.40;;;;;;2244857;61;20458;-62
2022/01/30 05:11:24;0.00;0.00;0.62;0.00;0.00;0.62;7.10;3.00;;;17.60;25.50;;;;;;2245867;61;20634;-61
2022/01/30 05:14:33;0.00;0.00;0.62;0.00;0.00;0.62;8.70;2.73;;;17.60;25.50;;;;;;2246933;61;20958;-62
2022/01/30 05:17:32;0.00;0.00;0.62;0.00;0.00;0.62;11.20;3.07;;;17.60;25.50;;;;;;2246220;61;20361;-61
2022/01/30 05:20:29;0.00;0.00;0.62;0.00;0.00;0.62;7.77;2.60;;;17.60;25.50;;;;;;2245479;61;20389;-61
2022/01/30 05:23:33;0.00;0.00;0.62;0.00;0.00;0.62;9.20;3.33;;;17.50;25.40;;;;;;2244815;61;20392;-61
2022/01/30 05:26:27;0.00;0.00;0.62;0.00;0.00;0.62;6.43;2.57;;;17.50;25.50;;;;;;2245866;61;20366;-60
2022/01/30 05:29:45;0.00;0.00;0.62;0.00;0.00;0.62;10.10;3.70;;;17.50;25.60;;;;;;2243967;61;20401;-61
2022/01/30 05:32:43;0.00;0.00;0.62;0.00;0.00;0.62;4.67;2.43;;;17.50;25.60;;;;;;2245721;61;20492;-61
2022/01/30 05:35:47;0.00;0.00;0.62;0.00;0.00;0.62;6.00;2.40;;;17.50;25.60;;;;;;2245416;61;20858;-61
2022/01/30 05:38:53;0.00;0.00;0.62;0.00;0.00;0.62;9.53;3.17;;;17.40;25.60;;;;;;2245222;61;20453;-60
2022/01/30 05:42:00;0.00;0.00;0.62;0.00;0.00;0.62;7.90;3.00;;;17.40;25.60;;;;;;2245623;61;20365;-59
2022/01/30 05:48:14;0.00;0.00;0.62;0.00;0.00;0.62;7.20;2.97;;;17.40;25.60;;;;;;2246685;61;20369;-60
2022/01/30 05:51:11;0.00;0.00;0.62;0.00;0.00;0.62;8.47;3.13;;;17.40;25.50;;;;;;2248399;61;20601;-58
2022/01/30 05:54:10;0.00;0.00;0.62;0.00;0.00;0.62;9.63;2.93;;;17.40;25.50;;;;;;2249494;61;20386;-61
2022/01/30 05:56:55;0.00;0.00;0.62;0.00;0.00;0.62;6.63;2.60;;;17.40;25.50;;;;;;2249401;61;20720;-61
2022/01/30 05:59:43;0.00;0.00;0.62;0.00;0.00;0.62;6.30;3.00;;;17.40;25.50;;;;;;2250452;61;20417;-60
2022/01/30 06:02:35;0.00;0.00;0.62;0.00;0.00;0.62;6.70;3.60;;;17.30;25.50;;;;;;2252428;61;20369;-61
2022/01/30 06:05:23;0.00;0.00;0.62;0.00;0.00;0.62;6.43;3.27;;;17.40;25.60;;;;;;2249505;61;20413;-61
2022/01/30 06:08:14;0.00;0.00;0.62;0.00;0.00;0.62;7.80;2.90;;;17.40;25.60;;;;;;2251407;61;20436;-60
2022/01/30 06:11:00;0.00;0.00;0.62;0.00;0.00;0.62;12.80;4.83;;;17.30;25.60;;;;;;2252199;61;20454;-61
2022/01/30 06:13:44;0.00;0.00;0.62;0.00;0.00;0.62;8.63;3.43;;;17.30;25.60;;;;;;2248235;61;20482;-60
2022/01/30 06:16:28;0.00;0.00;0.62;0.00;0.00;0.62;13.67;4.27;;;17.30;25.50;;;;;;2252075;61;20360;-60
2022/01/30 06:19:13;0.00;0.00;0.62;0.00;0.00;0.62;9.40;3.90;;;17.30;25.50;;;;;;2249179;61;20404;-61
2022/01/30 06:22:17;0.00;0.00;0.62;0.00;0.00;0.62;7.47;3.10;;;17.30;26.10;;;;;;2248539;61;20356;-61
2022/01/30 06:25:20;0.00;0.00;0.62;0.00;0.00;0.62;6.90;3.23;;;17.30;25.50;;;;;;2249902;61;20759;-59
2022/01/30 06:28:25;0.00;0.00;0.62;0.00;0.00;0.62;11.70;3.97;;;17.30;25.50;;;;;;2248362;61;20388;-61
2022/01/30 06:31:42;0.00;0.00;0.62;0.00;0.00;0.62;10.33;3.93;;;17.30;25.50;;;;;;2247840;61;20420;-59
2022/01/30 06:34:45;0.00;0.00;0.62;0.00;0.00;0.62;10.27;3.27;;;17.20;25.50;;;;;;2249538;61;20574;-59
2022/01/30 06:38:00;0.00;0.00;0.62;0.00;0.00;0.62;10.90;4.40;;;17.20;25.50;;;;;;2249071;61;20356;-59
2022/01/30 06:41:07;0.00;0.00;0.62;0.00;0.00;0.62;12.70;3.83;;;17.20;25.50;;;;;;2249528;61;20429;-59
2022/01/30 06:44:12;0.00;0.00;0.62;0.00;0.00;0.62;10.70;3.97;;;17.20;25.40;;;;;;2248221;61;20369;-61
2022/01/30 06:47:23;0.00;0.00;0.62;0.00;0.00;0.62;9.87;3.93;;;17.10;25.30;;;;;;2248504;61;20602;-61
2022/01/30 06:50:27;0.00;0.00;0.62;0.00;0.00;0.62;8.67;4.27;;;17.10;25.40;;;;;;2496942;53;20445;-60
2022/01/30 06:53:30;0.00;0.00;0.62;0.00;0.00;0.62;7.87;3.47;;;17.10;25.40;;;;;;2245457;61;20361;-61
2022/01/30 06:56:33;0.00;0.00;0.62;0.00;0.00;0.62;9.63;4.03;;;17.10;25.30;;;;;;2245961;61;20386;-61
2022/01/30 06:59:38;0.00;0.00;0.62;0.00;0.00;0.62;14.20;4.07;;;17.10;25.30;;;;;;2244459;61;20615;-59
2022/01/30 07:02:42;0.00;0.00;0.62;0.00;0.00;0.62;13.53;4.00;;;17.00;25.30;;;;;;2245920;61;20378;-61
2022/01/30 07:05:45;0.00;0.00;0.62;0.00;0.00;0.62;13.90;4.53;;;17.00;25.30;;;;;;2244372;61;20365;-60
2022/01/30 07:08:38;0.00;0.00;0.62;0.00;0.00;0.62;13.50;4.90;;;17.00;25.30;;;;;;2245060;61;20378;-61
2022/01/30 07:11:22;0.00;0.00;0.62;0.00;0.00;0.62;13.00;4.50;;;17.00;25.10;;;;;;2245681;61;20486;-60
2022/01/30 07:14:07;0.00;0.00;0.62;0.00;0.00;0.62;13.37;5.27;;;17.00;25.00;;;;;;2244609;61;20578;-61
2022/01/30 07:16:53;0.00;0.00;0.62;0.00;0.00;0.62;14.37;4.40;;;16.90;24.90;;;;;;2246094;61;20356;-60
2022/01/30 07:19:37;0.00;0.00;0.62;0.00;0.00;0.62;10.90;4.13;;;16.90;25.00;;;;;;2244601;61;20753;-60
2022/01/30 07:22:22;0.00;0.00;0.62;0.00;0.00;0.62;14.10;4.40;;;16.80;25.00;;;;;;2244997;61;20404;-61
2022/01/30 07:25:07;0.00;0.00;0.62;0.00;0.00;0.62;11.93;5.33;;;16.80;25.10;;;;;;2245888;61;20361;-59
2022/01/30 07:27:52;0.00;0.00;0.62;0.00;0.00;0.62;13.33;4.10;;;16.80;25.10;;;;;;2244256;61;20397;-61
2022/01/30 07:30:37;0.00;0.00;0.62;0.00;0.00;0.62;10.23;4.50;;;16.80;25.20;;;;;;2245411;61;20646;-60
2022/01/30 07:33:23;0.00;0.00;0.62;0.00;0.00;0.62;14.10;3.70;;;16.70;25.10;;;;;;2245673;61;20361;-59
2022/01/30 07:36:08;0.00;0.00;0.62;0.00;0.00;0.62;12.17;4.50;;;16.80;25.70;;;;;;2244103;61;20377;-59
2022/01/30 07:38:53;0.00;0.00;0.62;0.00;0.00;0.62;12.80;4.70;;;16.70;25.10;;;;;;2245519;61;20400;-61
2022/01/30 07:41:38;0.00;0.00;0.62;0.00;0.00;0.62;14.77;3.87;;;16.70;25.10;;;;;;2245061;61;20361;-61
2022/01/30 07:44:23;0.00;0.00;0.62;0.00;0.00;0.62;11.90;4.63;;;16.70;25.10;;;;;;2244757;61;20357;-61
2022/01/30 07:47:08;0.00;0.00;0.62;0.00;0.00;0.62;10.67;3.93;;;16.70;25.10;;;;;;2245704;61;20726;-60
2022/01/30 07:49:54;0.00;0.00;0.62;0.00;0.00;0.62;15.87;4.00;;;16.70;25.10;;;;;;2260235;61;20816;-60
2022/01/30 07:52:38;0.00;0.00;0.62;0.00;0.00;0.62;15.13;6.00;;;16.70;25.10;;;;;;2245446;61;20369;-60
2022/01/30 07:55:23;0.00;0.00;0.62;0.00;0.00;0.62;15.07;5.03;;;16.70;25.20;;;;;;2245810;61;20835;-59
2022/01/30 07:58:10;0.00;0.00;0.62;0.00;0.00;0.62;15.53;5.20;;;16.70;25.20;;;;;;2243936;61;20401;-59
2022/01/30 08:00:55;0.00;0.00;0.62;0.00;0.00;0.62;10.00;3.53;;;16.70;25.20;;;;;;2245766;61;20511;-61
2022/01/30 08:03:39;0.00;0.00;0.62;0.00;0.00;0.62;11.13;4.43;;;16.70;25.20;;;;;;2244994;61;20627;-61
2022/01/30 08:06:25;0.00;0.00;0.62;0.00;0.00;0.62;11.90;4.90;;;16.70;25.70;;;;;;2244658;61;20365;-60
2022/01/30 08:09:10;0.00;0.00;0.62;0.00;0.00;0.62;9.33;3.77;;;16.70;25.20;;;;;;2245486;61;20385;-58
2022/01/30 08:11:55;0.00;0.00;0.62;0.00;0.00;0.62;13.47;4.43;;;16.70;25.10;;;;;;2244154;61;20362;-59
2022/01/30 08:14:39;0.00;0.00;0.62;0.00;0.00;0.62;11.17;4.33;;;16.70;25.10;;;;;;2245465;61;20397;-59
2022/01/30 08:17:24;0.00;0.00;0.62;0.00;0.00;0.62;12.67;4.40;;;16.70;25.00;;;;;;2245768;61;20687;-59
2022/01/30 08:20:09;0.00;0.00;0.62;0.00;0.00;0.62;12.10;4.90;;;16.70;25.00;;;;;;2243644;61;20624;-61
2022/01/30 08:22:56;0.00;0.00;0.62;0.00;0.00;0.62;8.37;3.77;;;16.70;24.80;;;;;;2246346;61;20409;-58
2022/01/30 08:25:42;0.00;0.00;0.62;0.00;0.00;0.62;11.37;3.63;;;16.70;24.80;;;;;;2246034;61;20372;-62
2022/01/30 08:28:27;0.00;0.00;0.62;0.00;0.00;0.62;7.13;3.13;;;16.70;24.80;;;;;;2244982;61;20381;-61
2022/01/30 08:31:11;0.00;0.00;0.62;0.00;0.00;0.62;9.00;3.83;;;16.70;25.00;;;;;;2246388;61;20457;-61
2022/01/30 08:33:55;0.00;0.00;0.62;0.00;0.00;0.62;10.83;3.77;;;16.70;25.10;;;;;;2245328;61;20733;-60
2022/01/30 08:36:40;0.00;0.00;0.62;0.00;0.00;0.62;7.70;2.63;;;16.80;25.30;;;;;;2246002;61;20761;-61
2022/01/30 08:39:25;0.00;0.00;0.62;0.00;0.00;0.62;4.73;2.67;;;16.80;25.30;;;;;;2246041;61;20418;-61
2022/01/30 08:42:10;0.00;0.00;0.62;0.00;0.00;0.62;7.87;2.93;;;16.90;25.40;;;;;;2244776;61;20358;-61
2022/01/30 08:44:55;0.00;0.00;0.62;0.00;0.00;0.62;11.10;3.57;;;16.90;25.40;;;;;;2246639;61;20401;-60
2022/01/30 08:47:40;0.00;0.00;0.62;0.00;0.00;0.62;6.57;3.17;;;17.00;25.50;;;;;;2246907;61;20412;-61
2022/01/30 08:50:25;0.00;0.00;0.62;0.00;0.00;0.62;5.70;2.77;;;17.00;25.50;;;;;;2482107;53;20391;-61
2022/01/30 08:53:09;0.00;0.00;0.62;0.00;0.00;0.62;5.20;3.03;;;17.10;25.60;;;;;;2250241;61;20369;-61
2022/01/30 08:55:55;0.00;0.00;0.62;0.00;0.00;0.62;5.40;3.10;;;17.10;25.60;;;;;;2249047;61;20748;-60
2022/01/30 08:58:40;0.00;0.00;0.62;0.00;0.00;0.62;9.07;3.10;;;17.20;25.70;;;;;;2249520;61;20367;-61
2022/01/30 09:01:24;0.00;0.00;0.62;0.00;0.00;0.62;7.70;2.87;;;17.20;25.70;;;;;;2250171;61;20408;-60
2022/01/30 09:04:11;0.00;0.00;0.62;0.00;0.00;0.62;5.00;2.53;;;17.30;25.80;;;;;;2248823;61;20672;-61
2022/01/30 09:06:55;0.00;0.00;0.62;0.00;0.00;0.62;6.83;2.83;;;17.30;25.80;;;;;;2250243;61;20360;-59
2022/01/30 09:09:40;0.00;0.00;0.62;0.00;0.00;0.62;4.03;2.10;;;17.40;25.80;;;;;;2249761;61;20400;-60
2022/01/30 09:12:26;0.00;0.00;0.62;0.00;0.00;0.62;7.13;3.33;;;17.40;25.80;;;;;;2248502;61;20361;-61
2022/01/30 09:15:13;0.00;0.00;0.62;0.00;0.00;0.62;4.67;3.17;;;17.40;25.80;;;;;;2250297;61;20373;-60
2022/01/30 09:17:58;0.00;0.00;0.62;0.00;0.00;0.62;6.93;3.50;;;17.50;25.80;;;;;;2249440;61;20365;-59
2022/01/30 09:20:43;0.00;0.00;0.62;0.00;0.00;0.62;5.27;3.10;;;17.50;25.80;;;;;;2249127;61;20391;-61
2022/01/30 09:23:28;0.00;0.00;0.62;0.00;0.00;0.62;5.03;2.67;;;17.60;25.90;;;;;;2250064;61;20397;-60
2022/01/30 09:26:12;0.00;0.00;0.62;0.00;0.00;0.62;4.93;2.30;;;17.60;25.90;;;;;;2248654;61;20367;-60
2022/01/30 09:28:58;0.00;0.00;0.62;0.00;0.00;0.62;4.93;2.47;;;17.60;25.90;;;;;;2249636;61;20381;-60
2022/01/30 09:31:42;0.00;0.00;0.62;0.00;0.00;0.62;6.13;2.80;;;17.70;25.90;;;;;;2249841;61;20383;-60
2022/01/30 09:34:27;0.00;0.00;0.62;0.00;0.00;0.62;4.87;2.47;;;17.70;25.90;;;;;;2248552;61;20376;-60
2022/01/30 09:37:12;0.00;0.00;0.62;0.00;0.00;0.62;5.60;3.10;;;17.70;25.90;;;;;;2249937;61;20369;-60
2022/01/30 09:39:56;0.00;0.00;0.62;0.00;0.00;0.62;5.03;2.13;;;17.80;25.90;;;;;;2249091;61;20375;-61
2022/01/30 09:42:45;0.00;0.00;0.62;0.00;0.00;0.62;5.73;2.57;;;17.80;25.90;;;;;;2249197;61;20404;-62
2022/01/30 09:45:32;0.00;0.00;0.62;0.00;0.00;0.62;5.90;2.63;;;17.80;25.90;;;;;;2249894;61;20432;-60
2022/01/30 09:48:18;0.00;0.00;0.62;0.00;0.00;0.62;5.17;2.40;;;17.90;26.00;;;;;;2246899;61;20849;-60
2022/01/30 09:51:06;0.00;0.00;0.62;0.00;0.00;0.62;6.73;2.40;;;17.90;26.00;;;;;;2245727;61;20653;-59
2022/01/30 09:53:51;0.00;0.00;0.62;0.00;0.00;0.62;5.30;2.47;;;17.90;26.00;;;;;;2246063;61;20782;-61
2022/01/30 09:56:36;0.00;0.00;0.62;0.00;0.00;0.62;4.90;2.63;;;18.00;26.00;;;;;;2244452;61;20373;-60
2022/01/30 09:59:20;0.00;0.00;0.62;0.00;0.00;0.62;4.00;2.10;;;18.00;26.00;;;;;;2245689;61;20385;-60
2022/01/30 10:02:08;0.00;0.00;0.62;0.00;0.00;0.62;4.00;2.17;;;18.00;26.00;;;;;;2245582;61;20680;-60
2022/01/30 10:04:53;0.00;0.00;0.62;0.00;0.00;0.62;5.47;2.33;;;18.10;26.00;;;;;;2245113;61;20413;-59
2022/01/30 10:07:41;0.00;0.00;0.62;0.00;0.00;0.62;6.00;2.60;;;18.10;26.00;;;;;;2246047;61;20366;-60
2022/01/30 10:10:28;0.00;0.00;0.62;0.00;0.00;0.62;2.93;1.53;;;18.10;26.00;;;;;;2244528;61;20453;-60
2022/01/30 10:13:14;0.00;0.00;0.62;0.00;0.00;0.62;4.83;2.17;;;18.10;26.50;;;;;;2245540;61;20633;-60
2022/01/30 10:16:04;0.00;0.00;0.62;0.00;0.00;0.62;3.83;2.03;;;18.20;26.10;;;;;;2246150;61;20373;-61
2022/01/30 10:18:51;0.00;0.00;0.62;0.00;0.00;0.62;5.60;2.23;;;18.20;26.00;;;;;;2244221;61;20365;-62
2022/01/30 10:21:36;0.00;0.00;0.62;0.00;0.00;0.62;4.00;2.40;;;18.20;26.00;;;;;;2245856;61;20469;-60
2022/01/30 10:24:23;0.00;0.00;0.62;0.00;0.00;0.62;6.47;3.27;;;18.30;26.10;;;;;;2244990;61;20584;-60
2022/01/30 10:27:21;0.00;0.00;0.62;0.00;0.00;0.62;2.30;1.40;;;18.30;26.10;;;;;;2244802;61;20365;-60
2022/01/30 10:30:07;0.00;0.00;0.62;0.00;0.00;0.62;4.20;2.20;;;18.30;26.10;;;;;;2245775;61;20389;-60
2022/01/30 10:32:56;0.00;0.00;0.62;0.00;0.00;0.62;4.83;2.40;;;18.30;26.10;;;;;;2244409;61;20386;-61
2022/01/30 10:35:55;0.00;0.00;0.62;0.00;0.00;0.62;4.33;2.00;;;18.40;26.10;;;;;;2245718;61;20385;-61
2022/01/30 10:38:46;0.00;0.00;0.62;0.00;0.00;0.62;3.63;2.20;;;18.40;26.10;;;;;;2245787;61;20370;-60
2022/01/30 10:41:36;0.00;0.00;0.62;0.00;0.00;0.62;5.10;2.80;;;18.40;26.10;;;;;;2244640;61;20601;-61
2022/01/30 10:44:21;0.00;0.00;0.62;0.00;0.00;0.62;4.47;1.67;;;18.40;26.10;;;;;;2245930;61;20429;-61
2022/01/30 10:47:06;0.00;0.00;0.62;0.00;0.00;0.62;5.83;2.10;;;18.50;26.10;;;;;;2245114;61;20413;-62
2022/01/30 10:49:51;0.00;0.00;0.62;0.00;0.00;0.62;3.50;1.77;;;18.50;26.10;;;;;;2284976;58;20433;-62
2022/01/30 10:52:49;0.00;0.00;0.62;0.00;0.00;0.62;5.07;2.10;;;18.60;26.20;;;;;;2245892;61;20364;-61
2022/01/30 10:55:39;0.00;0.00;0.62;0.00;0.00;0.62;3.80;1.70;;;18.50;26.10;;;;;;2244050;61;20366;-61
2022/01/30 10:58:24;0.00;0.00;0.62;0.00;0.00;0.62;3.57;1.73;;;18.60;26.20;;;;;;2245761;61;20361;-61
2022/01/30 11:01:21;0.00;0.00;0.62;0.00;0.00;0.62;3.80;1.70;;;18.60;26.20;;;;;;2245376;61;20365;-60
2022/01/30 11:04:06;0.00;0.00;0.62;0.00;0.00;0.62;3.40;1.77;;;18.60;26.10;;;;;;2245040;61;20737;-60
2022/01/30 11:06:52;0.00;0.00;0.62;0.00;0.00;0.62;6.97;2.03;;;18.60;26.10;;;;;;2246200;61;20707;-60
2022/01/30 11:09:45;0.00;0.00;0.62;0.00;0.00;0.62;5.77;2.20;;;18.70;26.20;;;;;;2243826;61;20389;-61
2022/01/30 11:12:38;0.00;0.00;0.62;0.00;0.00;0.62;5.33;2.10;;;18.70;26.20;;;;;;2245684;61;20360;-65
2022/01/30 11:15:36;0.00;0.00;0.62;0.00;0.00;0.62;3.37;1.60;;;18.70;26.20;;;;;;2246289;61;20405;-61
2022/01/30 11:18:20;0.00;0.00;0.62;0.00;0.00;0.62;6.10;2.80;;;18.70;26.20;;;;;;2244407;61;20365;-65
2022/01/30 11:21:05;0.00;0.00;0.62;0.00;0.00;0.62;4.80;2.17;;;18.80;26.40;;;;;;2245761;61;20373;-65
2022/01/30 11:23:52;0.00;0.00;0.62;0.00;0.00;0.62;4.57;2.00;;;18.80;26.30;;;;;;2244985;61;20373;-67
2022/01/30 11:26:38;0.00;0.00;0.62;0.00;0.00;0.62;3.60;2.10;;;18.80;26.40;;;;;;2245154;61;20378;-62
2022/01/30 11:29:23;0.00;0.00;0.62;0.00;0.00;0.62;5.27;2.30;;;18.80;26.40;;;;;;2245714;61;20468;-63
2022/01/30 11:32:08;0.00;0.00;0.62;0.00;0.00;0.62;3.00;1.80;;;18.80;26.40;;;;;;2246428;61;20457;-64
2022/01/30 11:34:55;0.00;0.00;0.62;0.00;0.00;0.62;6.30;3.03;;;18.90;26.50;;;;;;2245796;61;20405;-65
2022/01/30 11:37:40;0.00;0.00;0.62;0.00;0.00;0.62;4.50;2.47;;;18.90;27.00;;;;;;2245754;61;20649;-63
2022/01/30 11:40:25;0.00;0.00;0.62;0.00;0.00;0.62;3.97;2.00;;;18.90;26.50;;;;;;2243938;61;20722;-66
2022/01/30 11:43:10;0.00;0.00;0.62;0.00;0.00;0.62;3.70;1.87;;;18.90;26.50;;;;;;2245795;61;20775;-63
2022/01/30 11:46:13;0.00;0.00;0.62;0.00;0.00;0.62;3.90;2.23;;;18.90;26.50;;;;;;2244987;61;20594;-64
2022/01/30 11:49:14;0.00;0.00;0.62;0.00;0.00;0.62;3.50;2.10;;;19.00;26.60;;;;;;2247904;61;20396;-65
2022/01/30 11:51:59;0.00;0.00;0.62;0.00;0.00;0.62;4.20;2.13;;;19.00;26.60;;;;;;2249371;61;20384;-64
2022/01/30 11:54:47;0.00;0.00;0.62;0.00;0.00;0.62;3.00;1.53;;;19.00;26.70;;;;;;2247777;61;20709;-64
2022/01/30 11:57:45;0.00;0.00;0.62;0.00;0.00;0.62;4.00;2.43;;;19.10;26.80;;;;;;2249806;61;20373;-65